Time;durP1;ratioP1;P1;durP2;ratioP2;P2;SDS_P1;SDS_P2;PMS_P1;PMS_P2;Temp;Humidity;BMP_temperature;BMP_pressure;BME280_temperature;BME280_humidity;BME280_pressure;Samples;Min_cycle;Max_cycle;Signal;HPM_P1;HPM_P2
2023/06/21 00:00:45;;;;;;;10.40;9.48;;;19.00;99.90;;;;;;5121130;27;20049;-66
2023/06/21 00:03:11;;;;;;;10.57;9.48;;;19.00;99.90;;;;;;5125025;27;20045;-65
2023/06/21 00:05:39;;;;;;;10.80;9.70;;;19.00;99.90;;;;;;5128858;27;20045;-65
2023/06/21 00:08:05;;;;;;;11.75;9.73;;;19.00;99.90;;;;;;5127152;27;20041;-64
2023/06/21 00:10:31;;;;;;;12.48;10.68;;;19.00;99.90;;;;;;5134885;27;20389;-64
2023/06/21 00:12:57;;;;;;;11.38;10.25;;;19.00;99.90;;;;;;5144296;27;20066;-64
2023/06/21 00:15:24;;;;;;;12.73;11.10;;;19.00;99.90;;;;;;5126886;27;20512;-66
2023/06/21 00:17:50;;;;;;;12.60;11.30;;;19.00;99.90;;;;;;5116676;27;20047;-65
2023/06/21 00:20:16;;;;;;;12.80;11.63;;;19.00;99.90;;;;;;5132921;27;20046;-65
2023/06/21 00:22:45;;;;;;;12.32;11.23;;;19.00;99.90;;;;;;5133047;27;20118;-64
2023/06/21 00:25:12;;;;;;;11.80;10.60;;;18.90;99.90;;;;;;5121906;27;20130;-65
2023/06/21 00:27:39;;;;;;;14.68;11.82;;;18.90;99.90;;;;;;5115125;27;20080;-65
2023/06/21 00:30:06;;;;;;;12.15;11.05;;;18.90;99.90;;;;;;5120667;27;20271;-64
2023/06/21 00:32:31;;;;;;;12.88;11.57;;;18.90;99.90;;;;;;5135553;27;20508;-65
2023/06/21 00:34:57;;;;;;;12.32;11.02;;;18.90;99.90;;;;;;5135204;27;20038;-66
2023/06/21 00:37:22;;;;;;;12.98;11.68;;;18.90;99.90;;;;;;5124035;27;20042;-66
2023/06/21 00:39:48;;;;;;;13.02;11.73;;;18.80;99.90;;;;;;5125937;27;20489;-65
2023/06/21 00:42:14;;;;;;;12.55;11.27;;;18.80;99.90;;;;;;5115679;27;20040;-64
2023/06/21 00:44:39;;;;;;;13.05;11.82;;;18.80;99.90;;;;;;5115859;27;20057;-65
2023/06/21 00:47:05;;;;;;;14.55;12.40;;;18.80;99.90;;;;;;5120790;27;20057;-65
2023/06/21 00:49:31;;;;;;;14.43;12.80;;;18.70;99.90;;;;;;5146481;27;20062;-64
2023/06/21 00:51:57;;;;;;;14.35;12.15;;;18.70;99.90;;;;;;5124769;27;20070;-64
2023/06/21 00:54:30;;;;;;;14.85;13.35;;;18.70;99.90;;;;;;5132231;27;20413;-66
2023/06/21 00:56:57;;;;;;;15.73;13.02;;;18.70;99.90;;;;;;5143814;27;20043;-65
2023/06/21 00:59:27;;;;;;;14.38;12.98;;;18.60;99.90;;;;;;5132883;27;20028;-65
2023/06/21 01:01:56;;;;;;;15.45;13.55;;;18.60;99.90;;;;;;5122864;27;20566;-65
2023/06/21 01:04:27;;;;;;;14.52;13.13;;;18.60;99.90;;;;;;5127406;27;20042;-65
2023/06/21 01:06:54;;;;;;;14.05;12.70;;;18.50;99.90;;;;;;5144455;27;20080;-64
2023/06/21 01:09:21;;;;;;;14.93;13.45;;;18.50;99.90;;;;;;5117527;27;20046;-65
2023/06/21 01:12:26;;;;;;;14.38;12.85;;;18.50;99.90;;;;;;5115041;27;20046;-64
2023/06/21 01:15:04;;;;;;;19.60;15.50;;;18.50;99.90;;;;;;5083721;27;20086;-65
2023/06/21 01:17:33;;;;;;;18.33;15.52;;;18.40;99.90;;;;;;5127841;27;20457;-66
2023/06/21 01:20:01;;;;;;;16.52;14.93;;;18.40;99.90;;;;;;5122664;27;20504;-64
2023/06/21 01:23:12;;;;;;;17.45;15.68;;;18.40;99.90;;;;;;5134480;27;20038;-65
2023/06/21 01:25:46;;;;;;;19.02;15.45;;;18.40;99.90;;;;;;5122188;27;20042;-66
2023/06/21 01:28:30;;;;;;;17.65;15.98;;;18.30;99.90;;;;;;5125637;27;20405;-65
2023/06/21 01:30:58;;;;;;;18.88;16.90;;;18.30;99.90;;;;;;5151589;27;20034;-67
2023/06/21 01:33:26;;;;;;;19.25;17.17;;;18.30;99.90;;;;;;5127378;27;20047;-64
2023/06/21 01:35:54;;;;;;;19.25;17.25;;;18.30;99.90;;;;;;5117891;27;20386;-65
2023/06/21 01:38:20;;;;;;;20.55;17.35;;;18.20;99.90;;;;;;5119756;27;20401;-65
2023/06/21 01:40:46;;;;;;;24.80;18.40;;;18.20;99.90;;;;;;5120337;27;20067;-65
2023/06/21 01:43:15;;;;;;;18.80;16.73;;;18.20;99.90;;;;;;5116154;27;20474;-63
2023/06/21 01:45:41;;;;;;;19.45;17.38;;;18.20;99.90;;;;;;5124317;27;20042;-65
2023/06/21 01:48:08;;;;;;;21.52;19.42;;;18.10;99.90;;;;;;5133313;27;20044;-64
2023/06/21 01:50:35;;;;;;;22.50;19.48;;;18.10;99.90;;;;;;5103683;27;20064;-65
2023/06/21 01:53:03;;;;;;;21.90;19.63;;;18.20;99.90;;;;;;5128754;27;20034;-66
2023/06/21 01:55:31;;;;;;;22.40;20.05;;;18.10;99.90;;;;;;5127141;27;20062;-65
2023/06/21 01:57:57;;;;;;;24.70;21.98;;;18.10;99.90;;;;;;5115474;27;20476;-65
2023/06/21 02:00:23;;;;;;;26.33;23.52;;;18.10;99.90;;;;;;5126228;27;20139;-65
2023/06/21 02:03:13;;;;;;;25.70;23.05;;;18.10;99.90;;;;;;5130987;27;20090;-64
2023/06/21 02:05:41;;;;;;;30.02;25.42;;;18.10;99.90;;;;;;5119085;27;20481;-64
2023/06/21 02:08:15;;;;;;;27.75;24.48;;;18.10;99.90;;;;;;5121079;27;20079;-65
2023/06/21 02:10:45;;;;;;;31.70;26.65;;;18.10;99.90;;;;;;5121538;27;20413;-64
2023/06/21 02:13:12;;;;;;;33.22;27.80;;;18.00;99.90;;;;;;5133387;27;20050;-65
2023/06/21 02:15:40;;;;;;;34.22;28.85;;;18.00;99.90;;;;;;5121832;27;20043;-64
2023/06/21 02:18:06;;;;;;;33.05;28.52;;;18.00;99.90;;;;;;5122737;27;20042;-64
2023/06/21 02:20:32;;;;;;;35.17;28.77;;;18.00;99.90;;;;;;5125576;27;20043;-65
2023/06/21 02:22:58;;;;;;;34.47;29.42;;;18.00;99.90;;;;;;5132632;27;20047;-65
2023/06/21 02:25:24;;;;;;;34.58;30.80;;;18.00;99.90;;;;;;5124667;27;20046;-65
2023/06/21 02:27:49;;;;;;;41.13;31.27;;;18.00;99.90;;;;;;5124138;27;20046;-66
2023/06/21 02:30:15;;;;;;;36.05;31.08;;;18.00;99.90;;;;;;5121624;27;20035;-66
2023/06/21 02:32:41;;;;;;;34.10;30.40;;;18.00;99.90;;;;;;5114493;27;20130;-64
2023/06/21 02:35:09;;;;;;;35.40;31.52;;;18.00;99.90;;;;;;5121130;27;20519;-64
2023/06/21 02:37:35;;;;;;;35.40;31.73;;;18.00;99.90;;;;;;5126747;27;20070;-65
2023/06/21 02:40:09;;;;;;;36.22;30.73;;;18.00;99.90;;;;;;5115495;27;20086;-65
2023/06/21 02:42:36;;;;;;;33.83;30.20;;;18.00;99.90;;;;;;5113825;27;20073;-65
2023/06/21 02:45:01;;;;;;;34.65;30.80;;;18.00;99.90;;;;;;5145966;27;20059;-65
2023/06/21 02:47:27;;;;;;;36.75;31.25;;;18.00;99.90;;;;;;5119286;27;20246;-64
2023/06/21 02:49:53;;;;;;;33.28;29.70;;;18.00;99.90;;;;;;5119604;27;20034;-64
2023/06/21 02:52:18;;;;;;;34.65;30.42;;;18.00;99.90;;;;;;5119218;27;20049;-64
2023/06/21 02:54:44;;;;;;;36.08;31.25;;;18.00;99.90;;;;;;5104907;27;20500;-64
2023/06/21 02:57:10;;;;;;;37.88;30.85;;;18.00;99.90;;;;;;5112196;27;20088;-65
2023/06/21 02:59:36;;;;;;;33.65;30.08;;;18.00;99.90;;;;;;5129639;27;20361;-64
2023/06/21 03:02:02;;;;;;;41.40;32.30;;;18.00;99.90;;;;;;5130384;27;20129;-64
2023/06/21 03:04:28;;;;;;;34.05;30.38;;;18.00;99.90;;;;;;5118622;27;20035;-66
2023/06/21 03:06:54;;;;;;;34.50;30.75;;;17.90;99.90;;;;;;5118334;27;20099;-65
2023/06/21 03:09:19;;;;;;;35.35;30.58;;;17.90;99.90;;;;;;5130248;27;20429;-64
2023/06/21 03:11:47;;;;;;;37.45;31.45;;;17.90;99.90;;;;;;5132991;27;20397;-65
2023/06/21 03:14:12;;;;;;;36.10;30.90;;;17.90;99.90;;;;;;5127586;27;20035;-64
2023/06/21 03:16:39;;;;;;;31.75;28.27;;;17.90;99.90;;;;;;5112503;27;20455;-66
2023/06/21 03:19:05;;;;;;;35.05;31.25;;;17.90;99.90;;;;;;5112336;27;20043;-66
2023/06/21 03:21:31;;;;;;;38.47;32.33;;;17.90;99.90;;;;;;5128440;27;20473;-64
2023/06/21 03:23:56;;;;;;;34.15;29.85;;;17.90;99.90;;;;;;5129825;27;20042;-65
2023/06/21 03:26:22;;;;;;;35.17;30.90;;;17.90;99.90;;;;;;5117386;27;20081;-65
2023/06/21 03:28:48;;;;;;;34.33;30.63;;;17.90;99.90;;;;;;5117807;27;20038;-65
2023/06/21 03:31:14;;;;;;;33.40;29.75;;;17.90;99.90;;;;;;5112296;27;20039;-64
2023/06/21 03:33:39;;;;;;;38.85;30.60;;;17.90;99.90;;;;;;5112606;27;20079;-65
2023/06/21 03:36:05;;;;;;;33.67;30.08;;;17.90;99.90;;;;;;5114426;27;20043;-65
2023/06/21 03:38:30;;;;;;;35.88;32.10;;;17.90;99.90;;;;;;5095481;27;20047;-64
2023/06/21 03:40:56;;;;;;;43.33;33.45;;;17.80;99.90;;;;;;5131748;27;20119;-65
2023/06/21 03:43:22;;;;;;;40.53;34.00;;;17.90;99.90;;;;;;5132933;27;20520;-65
2023/06/21 03:45:47;;;;;;;38.78;32.58;;;17.90;99.90;;;;;;5120944;27;20031;-65
2023/06/21 03:48:13;;;;;;;37.28;33.28;;;17.90;99.90;;;;;;5127461;27;20034;-65
2023/06/21 03:50:38;;;;;;;41.17;33.55;;;17.90;99.90;;;;;;5117917;27;20523;-65
2023/06/21 03:53:04;;;;;;;37.75;33.63;;;17.90;99.90;;;;;;5135838;27;20120;-65
2023/06/21 03:55:30;;;;;;;38.85;34.22;;;17.90;99.90;;;;;;5131913;27;20061;-65
2023/06/21 03:57:55;;;;;;;41.15;34.15;;;17.90;99.90;;;;;;5123625;27;20035;-64
2023/06/21 04:00:21;;;;;;;38.47;34.20;;;17.90;99.90;;;;;;5116314;27;20608;-65
2023/06/21 04:02:47;;;;;;;40.83;34.58;;;17.90;99.90;;;;;;5118574;27;20051;-66
2023/06/21 04:05:12;;;;;;;40.95;35.45;;;17.80;99.90;;;;;;5116163;27;20034;-65
2023/06/21 04:07:38;;;;;;;38.67;33.20;;;17.80;99.90;;;;;;5129406;27;20735;-64
2023/06/21 04:10:05;;;;;;;45.47;36.90;;;17.80;99.90;;;;;;5126983;27;20114;-65
2023/06/21 04:12:31;;;;;;;39.58;34.25;;;17.80;99.90;;;;;;5116818;27;20039;-64
2023/06/21 04:15:00;;;;;;;42.05;36.80;;;17.80;99.90;;;;;;5115530;27;20054;-65
2023/06/21 04:17:26;;;;;;;44.58;37.35;;;17.80;99.90;;;;;;5126858;27;20111;-65
2023/06/21 04:19:51;;;;;;;46.63;39.90;;;17.80;99.90;;;;;;5122517;27;20038;-65
2023/06/21 04:22:17;;;;;;;48.10;38.17;;;17.80;99.90;;;;;;5136138;27;20035;-64
2023/06/21 04:24:42;;;;;;;42.95;37.20;;;17.80;99.90;;;;;;5120524;27;20043;-65
2023/06/21 04:27:12;;;;;;;48.75;38.28;;;17.90;99.90;;;;;;5098157;27;20050;-66
2023/06/21 04:29:40;;;;;;;46.20;38.47;;;17.90;99.90;;;;;;5120303;27;20096;-65
2023/06/21 04:32:07;;;;;;;47.58;39.65;;;17.90;99.90;;;;;;5120571;27;20043;-64
2023/06/21 04:34:33;;;;;;;43.47;37.85;;;17.90;99.90;;;;;;5121191;27;20081;-64
2023/06/21 04:36:59;;;;;;;50.42;40.85;;;18.00;99.90;;;;;;5134931;27;20105;-65
2023/06/21 04:39:24;;;;;;;47.83;39.03;;;18.00;99.90;;;;;;5131128;27;20041;-64
2023/06/21 04:41:52;;;;;;;48.50;41.67;;;18.00;99.90;;;;;;5135838;27;20436;-65
2023/06/21 04:44:18;;;;;;;53.35;42.42;;;18.00;99.90;;;;;;5118206;27;20035;-64
2023/06/21 04:46:46;;;;;;;52.28;41.67;;;18.00;99.90;;;;;;5141788;27;20035;-65
2023/06/21 04:49:12;;;;;;;46.67;39.20;;;18.00;99.90;;;;;;5145852;27;20100;-65
2023/06/21 04:51:38;;;;;;;52.00;42.40;;;18.10;99.90;;;;;;5128050;27;20031;-66
2023/06/21 04:54:06;;;;;;;53.33;41.47;;;18.00;99.90;;;;;;5128237;27;20434;-64
2023/06/21 04:56:31;;;;;;;51.95;41.95;;;18.10;99.90;;;;;;5125025;27;20055;-65
2023/06/21 04:58:57;;;;;;;46.38;38.17;;;18.10;99.90;;;;;;5101023;27;20035;-65
2023/06/21 05:01:23;;;;;;;53.13;41.13;;;18.10;99.90;;;;;;5114964;27;20031;-66
2023/06/21 05:03:51;;;;;;;53.95;42.28;;;18.20;99.90;;;;;;5128920;27;20097;-65
2023/06/21 05:06:20;;;;;;;53.05;41.58;;;18.20;99.90;;;;;;5122437;27;20042;-64
2023/06/21 05:08:45;;;;;;;52.20;42.00;;;18.30;99.90;;;;;;5132974;27;20042;-65
2023/06/21 05:11:11;;;;;;;54.60;43.28;;;18.30;99.90;;;;;;5127091;27;20058;-66
2023/06/21 05:13:37;;;;;;;47.75;40.08;;;18.30;99.90;;;;;;5130454;27;20058;-64
2023/06/21 05:16:03;;;;;;;54.97;43.28;;;18.40;99.90;;;;;;5116291;27;20042;-65
2023/06/21 05:18:28;;;;;;;52.65;42.03;;;18.40;99.90;;;;;;5117033;27;20455;-66
2023/06/21 05:20:55;;;;;;;50.90;39.88;;;18.50;99.90;;;;;;5121730;27;20041;-65
2023/06/21 05:23:21;;;;;;;49.72;41.33;;;18.50;99.90;;;;;;5121335;27;20103;-66
2023/06/21 05:25:46;;;;;;;47.55;40.05;;;18.60;99.90;;;;;;5126802;27;20125;-65
2023/06/21 05:28:12;;;;;;;46.58;40.83;;;18.70;99.90;;;;;;5131719;27;20396;-64
2023/06/21 05:30:37;;;;;;;44.20;38.95;;;18.70;99.90;;;;;;5114080;27;20079;-65
2023/06/21 05:33:03;;;;;;;51.88;40.72;;;18.80;99.90;;;;;;5116360;27;20043;-64
2023/06/21 05:35:29;;;;;;;48.13;40.25;;;18.80;99.90;;;;;;5114637;27;20043;-64
2023/06/21 05:37:54;;;;;;;49.60;40.25;;;18.90;99.90;;;;;;5134206;27;20093;-65
2023/06/21 05:40:20;;;;;;;49.47;40.58;;;18.90;99.90;;;;;;5115657;27;20042;-66
2023/06/21 05:42:46;;;;;;;47.45;39.85;;;19.10;99.90;;;;;;5142378;27;20040;-65
2023/06/21 05:45:12;;;;;;;43.78;36.47;;;19.10;99.90;;;;;;5149671;27;20102;-64
2023/06/21 05:47:38;;;;;;;45.65;38.00;;;19.20;99.90;;;;;;5122943;27;20034;-64
2023/06/21 05:50:04;;;;;;;46.85;37.78;;;19.30;99.90;;;;;;5118244;27;20032;-64
2023/06/21 05:52:30;;;;;;;43.35;37.53;;;19.40;99.90;;;;;;5101966;27;20049;-64
2023/06/21 05:54:55;;;;;;;42.83;35.83;;;19.30;99.90;;;;;;5120873;27;20047;-66
2023/06/21 05:57:21;;;;;;;40.30;34.92;;;19.40;99.90;;;;;;5121057;27;20117;-64
2023/06/21 05:59:47;;;;;;;40.35;34.08;;;19.50;99.90;;;;;;5120908;27;20080;-65
2023/06/21 06:02:13;;;;;;;36.63;31.55;;;19.40;99.90;;;;;;5127096;27;20114;-64
2023/06/21 06:04:39;;;;;;;34.03;29.17;;;19.50;99.90;;;;;;5121831;27;20066;-64
2023/06/21 06:07:05;;;;;;;32.53;28.17;;;19.50;99.90;;;;;;5125729;27;20393;-65
2023/06/21 06:09:31;;;;;;;28.95;24.33;;;19.60;99.90;;;;;;5119432;27;20039;-64
2023/06/21 06:11:57;;;;;;;33.00;25.00;;;19.70;99.90;;;;;;5133930;27;20496;-64
2023/06/21 06:14:25;;;;;;;30.10;24.23;;;19.80;99.90;;;;;;5122493;27;20042;-64
2023/06/21 06:16:51;;;;;;;25.50;22.77;;;19.80;99.90;;;;;;5114745;27;20134;-65
2023/06/21 06:19:17;;;;;;;21.13;18.40;;;19.90;99.90;;;;;;5117449;27;20457;-66
2023/06/21 06:21:42;;;;;;;19.73;16.52;;;20.00;99.90;;;;;;5118767;27;20073;-65
2023/06/21 06:24:08;;;;;;;22.92;16.25;;;20.10;99.90;;;;;;5117718;27;20042;-65
2023/06/21 06:26:34;;;;;;;15.52;13.18;;;20.10;99.90;;;;;;5132759;27;20049;-65
2023/06/21 06:29:00;;;;;;;17.20;13.70;;;20.10;99.90;;;;;;5125700;27;20088;-66
2023/06/21 06:31:28;;;;;;;19.50;16.23;;;20.20;99.90;;;;;;5128942;27;20039;-64
2023/06/21 06:33:54;;;;;;;20.48;14.30;;;20.20;99.90;;;;;;5124606;27;20030;-64
2023/06/21 06:36:20;;;;;;;15.05;11.45;;;20.20;99.90;;;;;;5114447;27;20043;-64
2023/06/21 06:38:49;;;;;;;13.98;11.45;;;20.30;99.90;;;;;;5113237;27;20485;-65
2023/06/21 06:41:16;;;;;;;11.93;9.57;;;20.40;99.90;;;;;;5118550;27;20051;-64
2023/06/21 06:43:42;;;;;;;12.00;10.68;;;20.50;99.90;;;;;;5127432;27;20071;-65
2023/06/21 06:46:07;;;;;;;12.00;9.75;;;20.60;99.90;;;;;;5113935;27;20034;-65
2023/06/21 06:48:33;;;;;;;10.77;8.93;;;20.70;99.90;;;;;;5126154;27;20198;-65
2023/06/21 06:50:59;;;;;;;11.07;8.52;;;20.70;99.90;;;;;;5114381;27;20053;-64
2023/06/21 06:53:25;;;;;;;12.07;7.65;;;20.70;99.90;;;;;;5146440;27;20058;-64
2023/06/21 06:55:51;;;;;;;9.90;7.78;;;20.80;99.90;;;;;;5125709;27;20486;-65
2023/06/21 06:58:18;;;;;;;10.63;7.95;;;20.80;99.90;;;;;;5131159;27;20043;-65
2023/06/21 07:00:44;;;;;;;10.75;7.82;;;21.00;99.90;;;;;;5114638;27;20043;-64
2023/06/21 07:03:10;;;;;;;10.10;8.35;;;21.00;99.90;;;;;;5130951;27;20031;-64
2023/06/21 07:05:35;;;;;;;8.70;7.63;;;21.20;99.90;;;;;;5120729;27;20027;-66
2023/06/21 07:08:03;;;;;;;9.38;7.95;;;21.30;99.90;;;;;;5131077;27;20032;-64
2023/06/21 07:10:28;;;;;;;8.23;7.18;;;21.50;99.90;;;;;;5116483;27;20095;-65
2023/06/21 07:12:54;;;;;;;10.05;7.32;;;21.60;99.90;;;;;;5112428;27;20424;-65
2023/06/21 07:15:20;;;;;;;8.23;6.80;;;21.70;99.90;;;;;;5124895;27;20035;-65
2023/06/21 07:17:45;;;;;;;9.00;7.40;;;21.80;99.90;;;;;;5137201;27;20078;-66
2023/06/21 07:20:11;;;;;;;8.40;7.32;;;21.90;99.90;;;;;;5136642;27;20038;-65
2023/06/21 07:22:37;;;;;;;7.90;7.00;;;22.00;99.90;;;;;;5122401;27;20043;-65
2023/06/21 07:25:03;;;;;;;9.10;7.47;;;22.10;99.90;;;;;;5152710;27;20034;-65
2023/06/21 07:27:29;;;;;;;8.60;7.28;;;22.20;99.90;;;;;;5137026;27;20034;-66
2023/06/21 07:29:55;;;;;;;8.60;7.35;;;22.10;99.90;;;;;;5135357;27;20046;-66
2023/06/21 07:32:21;;;;;;;9.73;7.43;;;22.20;99.90;;;;;;5116615;27;20035;-65
2023/06/21 07:34:46;;;;;;;10.45;7.38;;;22.20;99.90;;;;;;5116628;27;20039;-66
2023/06/21 07:37:12;;;;;;;8.88;6.72;;;22.40;99.90;;;;;;5116679;27;20125;-65
2023/06/21 07:39:38;;;;;;;8.43;7.03;;;22.30;99.90;;;;;;5122766;27;20118;-66
2023/06/21 07:42:04;;;;;;;8.40;6.97;;;22.40;99.90;;;;;;5135046;27;20055;-65
2023/06/21 07:44:31;;;;;;;11.65;6.68;;;22.50;99.90;;;;;;5136881;27;20100;-65
2023/06/21 07:46:57;;;;;;;7.50;6.55;;;22.70;99.90;;;;;;5134741;27;20114;-65
2023/06/21 07:49:22;;;;;;;9.25;6.82;;;22.70;99.90;;;;;;5134268;27;20461;-65
2023/06/21 07:51:49;;;;;;;8.63;7.07;;;22.80;99.90;;;;;;5124143;27;20393;-65
2023/06/21 07:54:14;;;;;;;8.35;6.53;;;22.90;99.90;;;;;;5114264;27;20104;-64
2023/06/21 07:56:40;;;;;;;8.82;6.78;;;22.80;99.90;;;;;;5111876;28;20060;-64
2023/06/21 07:59:06;;;;;;;6.97;6.22;;;22.90;99.90;;;;;;5112739;28;20058;-65
2023/06/21 08:01:31;;;;;;;9.05;6.60;;;22.90;99.90;;;;;;5112265;28;20047;-66
2023/06/21 08:03:59;;;;;;;8.73;6.72;;;22.90;99.90;;;;;;5113553;28;20039;-64
2023/06/21 08:06:26;;;;;;;8.35;6.68;;;23.00;99.90;;;;;;5110875;28;20116;-64
2023/06/21 08:08:52;;;;;;;8.57;6.70;;;23.00;99.90;;;;;;5110805;28;20131;-64
2023/06/21 08:11:17;;;;;;;8.88;6.90;;;23.10;99.90;;;;;;5110895;28;20118;-65
2023/06/21 08:13:43;;;;;;;7.00;6.30;;;23.10;99.90;;;;;;5112243;28;20519;-65
2023/06/21 08:16:09;;;;;;;7.47;6.40;;;23.20;99.90;;;;;;5113659;28;20061;-65
2023/06/21 08:18:35;;;;;;;8.48;7.13;;;23.20;99.90;;;;;;5092010;28;20031;-64
2023/06/21 08:21:01;;;;;;;8.18;7.20;;;23.10;99.90;;;;;;5113246;28;20043;-65
2023/06/21 08:23:26;;;;;;;8.27;6.90;;;23.10;99.90;;;;;;5110161;28;20048;-63
2023/06/21 08:25:52;;;;;;;7.25;6.28;;;23.30;99.90;;;;;;5111560;28;20032;-64
2023/06/21 08:28:17;;;;;;;7.53;6.22;;;23.50;99.90;;;;;;5110723;28;20043;-65
2023/06/21 08:30:43;;;;;;;8.05;6.13;;;23.50;99.90;;;;;;5113101;28;20127;-64
2023/06/21 08:33:09;;;;;;;7.22;6.30;;;23.50;99.90;;;;;;5111419;28;20039;-64
2023/06/21 08:35:36;;;;;;;7.82;6.70;;;23.50;99.90;;;;;;5111496;28;20047;-65
2023/06/21 08:38:02;;;;;;;7.30;5.80;;;23.30;99.90;;;;;;5111135;28;20075;-64
2023/06/21 08:40:32;;;;;;;7.45;6.70;;;23.30;99.90;;;;;;5112039;28;20474;-64
2023/06/21 08:42:59;;;;;;;7.90;6.20;;;23.40;99.90;;;;;;5111332;28;20074;-64
2023/06/21 08:45:25;;;;;;;6.45;5.63;;;23.60;99.90;;;;;;5112008;28;20530;-65
2023/06/21 08:47:52;;;;;;;8.73;6.35;;;23.60;99.90;;;;;;5111475;28;20040;-66
2023/06/21 08:50:22;;;;;;;8.23;5.88;;;23.80;99.90;;;;;;5111706;28;20131;-64
2023/06/21 08:52:53;;;;;;;6.82;5.13;;;23.90;99.90;;;;;;5111743;28;20502;-64
2023/06/21 08:55:23;;;;;;;7.85;5.47;;;23.90;99.90;;;;;;5093792;28;20062;-65
2023/06/21 08:57:53;;;;;;;8.05;6.20;;;24.10;99.90;;;;;;5111466;28;20057;-65
2023/06/21 09:00:26;;;;;;;5.95;5.05;;;23.90;99.90;;;;;;5110716;28;20035;-64
2023/06/21 09:03:19;;;;;;;7.60;5.43;;;23.80;99.90;;;;;;5111407;28;20052;-64
2023/06/21 09:06:04;;;;;;;6.13;5.32;;;23.70;99.90;;;;;;5111442;28;20039;-65
2023/06/21 09:08:34;;;;;;;8.60;5.80;;;23.90;99.90;;;;;;5111254;28;20046;-65
2023/06/21 09:11:00;;;;;;;7.22;4.80;;;23.80;99.90;;;;;;5111612;28;20133;-64
2023/06/21 09:13:27;;;;;;;6.25;5.32;;;23.90;99.90;;;;;;5111132;28;20114;-64
2023/06/21 09:15:54;;;;;;;7.63;5.25;;;23.70;99.90;;;;;;5111285;28;20126;-64
2023/06/21 09:18:21;;;;;;;5.57;4.95;;;23.90;99.90;;;;;;5112492;28;20497;-65
2023/06/21 09:20:49;;;;;;;6.03;5.00;;;24.20;99.90;;;;;;5110891;28;20474;-64
2023/06/21 09:23:15;;;;;;;6.47;4.85;;;24.40;99.90;;;;;;5110990;28;20043;-65
2023/06/21 09:25:42;;;;;;;5.45;4.88;;;24.60;99.90;;;;;;5110897;28;20085;-65
2023/06/21 09:28:08;;;;;;;5.78;4.80;;;24.80;99.90;;;;;;5112040;28;20082;-65
2023/06/21 09:30:33;;;;;;;4.75;3.80;;;24.80;99.90;;;;;;5110976;28;20522;-65
2023/06/21 09:32:59;;;;;;;5.70;5.03;;;24.70;99.90;;;;;;5111178;28;20118;-64
2023/06/21 09:35:25;;;;;;;7.70;5.80;;;24.60;99.90;;;;;;5110450;28;20444;-65
2023/06/21 09:37:50;;;;;;;5.63;5.10;;;24.50;99.90;;;;;;5111547;28;20367;-64
2023/06/21 09:40:16;;;;;;;7.13;4.72;;;24.60;99.90;;;;;;5109611;28;20510;-65
2023/06/21 09:42:45;;;;;;;5.70;5.07;;;24.90;99.90;;;;;;5110567;28;20028;-65
2023/06/21 09:45:12;;;;;;;6.05;4.97;;;25.10;99.90;;;;;;5110179;28;20080;-65
2023/06/21 09:47:42;;;;;;;6.03;5.43;;;25.40;99.90;;;;;;5110573;28;20047;-65
2023/06/21 09:50:09;;;;;;;7.95;5.78;;;25.40;99.90;;;;;;5110178;28;20032;-65
2023/06/21 09:52:35;;;;;;;6.57;5.93;;;25.50;99.90;;;;;;5111808;28;20526;-65
2023/06/21 09:55:02;;;;;;;7.28;6.43;;;25.50;99.90;;;;;;5113984;27;20042;-65
2023/06/21 09:57:31;;;;;;;8.43;6.07;;;25.70;99.90;;;;;;5119499;27;20050;-65
2023/06/21 10:00:00;;;;;;;5.50;4.85;;;25.80;99.90;;;;;;5116831;27;20039;-65
2023/06/21 10:02:27;;;;;;;6.68;5.32;;;26.10;99.90;;;;;;5113361;27;20490;-65
2023/06/21 10:04:54;;;;;;;8.32;6.80;;;26.40;99.90;;;;;;5119809;27;20047;-64
2023/06/21 10:07:21;;;;;;;7.63;5.60;;;26.20;99.90;;;;;;5151858;27;20037;-64
2023/06/21 10:09:47;;;;;;;4.25;3.85;;;26.10;99.90;;;;;;5129918;27;20039;-65
2023/06/21 10:12:14;;;;;;;6.32;3.55;;;26.10;99.90;;;;;;5119488;27;20039;-64
2023/06/21 10:14:41;;;;;;;5.25;3.30;;;26.10;99.90;;;;;;5125447;27;20123;-63
2023/06/21 10:17:08;;;;;;;6.75;3.90;;;26.40;99.40;;;;;;5139071;27;20478;-65
2023/06/21 10:19:34;;;;;;;5.43;4.28;;;26.50;98.90;;;;;;5112592;27;20055;-65
2023/06/21 10:22:14;;;;;;;6.00;4.25;;;26.60;98.50;;;;;;5119854;27;20046;-65
2023/06/21 10:24:52;;;;;;;5.57;3.40;;;26.50;97.40;;;;;;5096095;27;20438;-64
2023/06/21 10:27:21;;;;;;;4.45;3.30;;;26.30;96.90;;;;;;5123517;27;20046;-65
2023/06/21 10:30:07;;;;;;;3.78;3.35;;;26.50;97.60;;;;;;5151721;27;20054;-63
2023/06/21 10:32:34;;;;;;;3.88;3.47;;;26.60;96.50;;;;;;5115460;27;20089;-64
2023/06/21 10:35:14;;;;;;;3.13;2.70;;;26.80;97.40;;;;;;5122837;27;20046;-65
2023/06/21 10:38:01;;;;;;;4.13;2.70;;;26.50;95.70;;;;;;5135113;27;20106;-65
2023/06/21 10:40:29;;;;;;;3.17;2.20;;;26.30;96.00;;;;;;5138000;27;20038;-64
2023/06/21 10:42:57;;;;;;;3.75;2.70;;;26.30;96.60;;;;;;5133550;27;20035;-65
2023/06/21 10:45:24;;;;;;;3.17;2.63;;;26.00;95.90;;;;;;5130993;27;20385;-64
2023/06/21 10:47:53;;;;;;;4.28;2.60;;;26.10;96.00;;;;;;5141191;27;20488;-63
2023/06/21 10:50:20;;;;;;;4.20;2.92;;;26.10;95.80;;;;;;5112443;27;20039;-64
2023/06/21 10:52:49;;;;;;;6.03;3.22;;;26.10;95.00;;;;;;5114723;27;20031;-64
2023/06/21 10:55:15;;;;;;;4.07;3.10;;;26.20;95.70;;;;;;5121200;27;20059;-65
2023/06/21 10:57:42;;;;;;;4.82;3.60;;;26.50;96.10;;;;;;5095572;27;20474;-65
2023/06/21 11:00:09;;;;;;;4.68;3.92;;;26.40;95.80;;;;;;5147744;27;20042;-65
2023/06/21 11:02:35;;;;;;;6.28;4.10;;;25.90;95.10;;;;;;5122696;27;20038;-65
2023/06/21 11:05:21;;;;;;;4.40;3.72;;;25.60;95.70;;;;;;5122171;27;20119;-65
2023/06/21 11:07:56;;;;;;;4.68;4.18;;;25.60;96.60;;;;;;5150646;27;20042;-64
2023/06/21 11:10:42;;;;;;;7.10;5.38;;;25.80;96.70;;;;;;5112606;27;20075;-64
2023/06/21 11:13:09;;;;;;;5.97;4.53;;;25.90;95.90;;;;;;5121063;27;20041;-65
2023/06/21 11:15:39;;;;;;;4.57;4.18;;;26.10;96.10;;;;;;5132458;27;20042;-64
2023/06/21 11:18:06;;;;;;;5.35;4.50;;;26.20;96.00;;;;;;5133254;27;20050;-64
2023/06/21 11:20:50;;;;;;;6.13;3.80;;;26.40;95.90;;;;;;5118878;27;20061;-66
2023/06/21 11:23:21;;;;;;;4.47;3.42;;;26.20;95.40;;;;;;5124547;27;20481;-64
2023/06/21 11:25:51;;;;;;;4.55;3.75;;;25.90;95.80;;;;;;5132908;27;20039;-64
2023/06/21 11:28:19;;;;;;;4.60;2.70;;;26.00;96.20;;;;;;5132081;27;20035;-64
2023/06/21 11:31:03;;;;;;;4.22;3.20;;;25.90;95.30;;;;;;5133146;27;20489;-65
2023/06/21 11:33:30;;;;;;;4.45;3.05;;;25.70;93.40;;;;;;5116513;27;20035;-64
2023/06/21 11:36:03;;;;;;;3.83;2.60;;;25.80;94.40;;;;;;5103511;27;20529;-64
2023/06/21 11:38:32;;;;;;;2.55;2.35;;;26.00;94.20;;;;;;5116250;27;20560;-63
2023/06/21 11:40:58;;;;;;;4.82;2.83;;;26.10;93.00;;;;;;5125876;27;20042;-63
2023/06/21 11:43:24;;;;;;;3.42;2.83;;;26.30;93.50;;;;;;5132955;27;20039;-64
2023/06/21 11:46:02;;;;;;;4.05;3.17;;;26.50;93.70;;;;;;5115111;27;20122;-63
2023/06/21 11:48:28;;;;;;;5.20;4.57;;;26.30;92.50;;;;;;5122245;27;20035;-65
2023/06/21 11:51:07;;;;;;;5.38;3.72;;;26.20;93.10;;;;;;5119230;27;20119;-63
2023/06/21 11:53:41;;;;;;;5.03;3.90;;;26.30;93.40;;;;;;5116243;27;20047;-63
2023/06/21 11:56:16;;;;;;;4.30;3.88;;;26.30;93.20;;;;;;5111914;27;20425;-63
2023/06/21 11:58:42;;;;;;;4.45;3.63;;;26.30;93.90;;;;;;5130816;27;20374;-65
2023/06/21 12:01:09;;;;;;;4.43;3.30;;;26.40;94.00;;;;;;5132178;27;20039;-64
2023/06/21 12:03:35;;;;;;;3.75;2.88;;;26.40;93.70;;;;;;5123443;27;20086;-64
2023/06/21 12:06:02;;;;;;;3.85;3.20;;;26.50;93.10;;;;;;5136745;27;20461;-64
2023/06/21 12:08:36;;;;;;;4.43;3.50;;;26.70;93.70;;;;;;5119086;27;20643;-64
2023/06/21 12:11:10;;;;;;;5.20;3.92;;;26.80;93.20;;;;;;5120929;27;20085;-64
2023/06/21 12:13:37;;;;;;;5.40;4.00;;;26.70;92.00;;;;;;5121225;27;20034;-64
2023/06/21 12:16:05;;;;;;;5.30;4.00;;;26.60;92.90;;;;;;5142331;27;20110;-65
2023/06/21 12:18:33;;;;;;;4.63;3.40;;;26.60;93.00;;;;;;5123684;27;20091;-64
2023/06/21 12:21:01;;;;;;;4.10;3.70;;;26.50;92.60;;;;;;5120701;27;20078;-65
2023/06/21 12:23:30;;;;;;;3.70;3.30;;;26.40;92.60;;;;;;5142330;27;20038;-63
2023/06/21 12:25:57;;;;;;;7.13;3.42;;;26.40;93.10;;;;;;5134002;27;20050;-63
2023/06/21 12:28:23;;;;;;;6.55;4.22;;;26.40;92.60;;;;;;5103509;27;20099;-63
2023/06/21 12:30:59;;;;;;;4.85;3.63;;;26.30;92.40;;;;;;5135988;27;20039;-63
2023/06/21 12:33:27;;;;;;;7.25;3.97;;;26.10;92.80;;;;;;5125978;27;20043;-63
2023/06/21 12:36:09;;;;;;;4.00;3.30;;;26.10;93.40;;;;;;5126238;27;20240;-63
2023/06/21 12:38:35;;;;;;;4.45;3.30;;;26.20;93.60;;;;;;5125539;27;20047;-63